createdAt,value
2023-03-05T00:00:34.339Z, 42.16
2023-03-05T00:01:34.298Z, 42.14
2023-03-05T00:02:34.465Z, 42.13
2023-03-05T00:03:34.420Z, 42.12
2023-03-05T00:04:34.372Z, 42.03
2023-03-05T00:05:34.338Z, 41.96
2023-03-05T00:06:34.348Z, 41.99
2023-03-05T00:07:34.341Z, 41.97
2023-03-05T00:08:34.343Z, 41.94
2023-03-05T00:09:35.896Z, 41.92
2023-03-05T00:10:34.363Z, 41.87
2023-03-05T00:11:34.369Z, 41.88
2023-03-05T00:12:34.356Z, 41.83
2023-03-05T00:13:34.391Z, 41.83
2023-03-05T00:14:34.379Z, 41.79
2023-03-05T00:15:34.388Z, 41.71
2023-03-05T00:16:34.447Z, 41.70
2023-03-05T00:17:34.438Z, 41.61
2023-03-05T00:18:34.407Z, 41.59
2023-03-05T00:19:34.411Z, 41.56
2023-03-05T00:20:34.416Z, 41.58
2023-03-05T00:21:34.417Z, 41.55
2023-03-05T00:22:34.417Z, 41.50
2023-03-05T00:23:34.408Z, 41.44
2023-03-05T00:24:34.414Z, 41.39
2023-03-05T00:25:34.417Z, 41.40
2023-03-05T00:26:34.447Z, 41.38
2023-03-05T00:27:34.484Z, 41.30
2023-03-05T00:28:34.459Z, 41.26
2023-03-05T00:29:34.485Z, 41.25
2023-03-05T00:30:34.466Z, 41.31
2023-03-05T00:31:34.570Z, 41.31
2023-03-05T00:32:34.546Z, 41.20
2023-03-05T00:33:34.490Z, 41.15
2023-03-05T00:34:34.487Z, 41.19
2023-03-05T00:35:35.216Z, 41.17
2023-03-05T00:36:34.489Z, 41.17
2023-03-05T00:37:34.506Z, 41.10
2023-03-05T00:38:34.521Z, 41.05
2023-03-05T00:39:34.543Z, 41.10
2023-03-05T00:40:34.615Z, 41.09
2023-03-05T00:41:34.561Z, 40.98
2023-03-05T00:42:34.591Z, 41.00
2023-03-05T00:43:34.599Z, 40.99
2023-03-05T00:44:34.602Z, 40.86
2023-03-05T00:45:34.616Z, 40.85
2023-03-05T00:46:34.664Z, 40.82
2023-03-05T00:47:34.645Z, 40.83
2023-03-05T00:48:34.679Z, 40.75
2023-03-05T00:49:34.674Z, 40.81
2023-03-05T00:50:34.669Z, 40.73
2023-03-05T00:51:34.677Z, 40.78
2023-03-05T00:52:34.686Z, 40.69
2023-03-05T00:53:34.702Z, 40.66
2023-03-05T00:54:34.723Z, 40.63
2023-03-05T00:55:34.730Z, 40.70
2023-03-05T00:56:34.751Z, 40.65
2023-03-05T00:57:34.738Z, 40.61
2023-03-05T00:58:34.765Z, 40.60
2023-03-05T00:59:34.750Z, 40.57
2023-03-05T01:00:34.770Z, 40.56
2023-03-05T01:01:34.834Z, 40.49
2023-03-05T01:02:34.955Z, 40.52
2023-03-05T01:03:34.843Z, 40.52
2023-03-05T01:04:34.863Z, 40.53
2023-03-05T01:05:35.010Z, 40.45
2023-03-05T01:06:34.868Z, 40.45
2023-03-05T01:07:34.891Z, 40.45
2023-03-05T01:08:34.902Z, 40.46
2023-03-05T01:09:34.916Z, 40.40
2023-03-05T01:10:34.903Z, 40.36
2023-03-05T01:11:34.913Z, 40.29
2023-03-05T01:12:34.928Z, 40.28
2023-03-05T01:13:34.909Z, 40.31
2023-03-05T01:14:34.909Z, 40.26
2023-03-05T01:15:34.927Z, 40.19
2023-03-05T01:16:34.919Z, 40.21
2023-03-05T01:17:34.912Z, 40.22
2023-03-05T01:18:34.917Z, 40.11
2023-03-05T01:19:34.935Z, 40.11
2023-03-05T01:20:34.941Z, 40.08
2023-03-05T01:21:34.945Z, 40.09
2023-03-05T01:22:34.951Z, 40.06
2023-03-05T01:23:34.949Z, 40.02
2023-03-05T01:24:35.021Z, 39.99
2023-03-05T01:25:35.010Z, 39.94
2023-03-05T01:26:34.994Z, 39.88
2023-03-05T01:27:35.005Z, 39.85
2023-03-05T01:28:35.106Z, 39.87
2023-03-05T01:29:35.066Z, 39.87
2023-03-05T01:30:35.061Z, 39.82
2023-03-05T01:31:35.136Z, 39.82
2023-03-05T01:32:35.822Z, 39.74
2023-03-05T01:33:35.053Z, 39.78
2023-03-05T01:34:35.064Z, 39.74
2023-03-05T01:35:35.109Z, 39.77
2023-03-05T01:36:35.119Z, 39.76
2023-03-05T01:37:35.109Z, 39.70
2023-03-05T01:38:35.140Z, 39.68
2023-03-05T01:39:35.181Z, 39.64
2023-03-05T01:40:35.166Z, 39.60
2023-03-05T01:41:35.192Z, 39.60
2023-03-05T01:42:35.180Z, 39.54
2023-03-05T01:43:35.194Z, 39.55
2023-03-05T01:44:35.245Z, 39.46
2023-03-05T01:45:35.270Z, 39.43
2023-03-05T01:46:35.225Z, 39.42
2023-03-05T01:47:35.241Z, 39.38
2023-03-05T01:48:35.247Z, 39.38
2023-03-05T01:49:35.321Z, 39.39
2023-03-05T01:50:35.305Z, 39.39
2023-03-05T01:51:35.268Z, 39.32
2023-03-05T01:52:35.326Z, 39.29
2023-03-05T01:53:35.305Z, 39.25
2023-03-05T01:54:35.325Z, 39.31
2023-03-05T01:55:35.326Z, 39.29
2023-03-05T01:56:35.333Z, 39.28
2023-03-05T01:57:35.350Z, 39.21
2023-03-05T01:58:35.363Z, 39.22
2023-03-05T01:59:35.357Z, 39.16
2023-03-05T02:00:35.395Z, 39.14
2023-03-05T02:01:35.386Z, 39.09
2023-03-05T02:02:35.433Z, 39.05
2023-03-05T02:03:35.435Z, 39.04
2023-03-05T02:04:35.428Z, 39.07
2023-03-05T02:05:35.394Z, 39.06
2023-03-05T02:06:35.390Z, 39.05
2023-03-05T02:07:35.400Z, 39.03
2023-03-05T02:08:35.406Z, 39.03
2023-03-05T02:09:35.458Z, 39.01
2023-03-05T02:10:35.420Z, 38.98
2023-03-05T02:11:35.465Z, 38.96
2023-03-05T02:12:35.477Z, 38.96
2023-03-05T02:13:35.566Z, 39.00
2023-03-05T02:14:35.541Z, 39.00
2023-03-05T02:15:35.522Z, 38.94
2023-03-05T02:16:35.605Z, 38.85
2023-03-05T02:17:35.536Z, 38.80
2023-03-05T02:18:35.532Z, 38.80
2023-03-05T02:19:35.579Z, 38.90
2023-03-05T02:20:35.593Z, 38.78
2023-03-05T02:21:35.608Z, 38.79
2023-03-05T02:22:35.612Z, 38.75
2023-03-05T02:23:35.634Z, 38.72
2023-03-05T02:24:35.648Z, 38.76
2023-03-05T02:25:35.620Z, 38.74
2023-03-05T02:26:35.654Z, 38.66
2023-03-05T02:27:35.658Z, 38.62
2023-03-05T02:28:35.631Z, 38.54
2023-03-05T02:29:35.685Z, 38.48
2023-03-05T02:30:35.714Z, 38.50
2023-03-05T02:31:35.708Z, 38.49
2023-03-05T02:32:35.774Z, 38.48
2023-03-05T02:33:35.737Z, 38.48
2023-03-05T02:34:35.719Z, 38.43
2023-03-05T02:35:35.720Z, 38.43
2023-03-05T02:36:35.702Z, 38.45
2023-03-05T02:37:35.709Z, 38.42
2023-03-05T02:38:35.731Z, 38.44
2023-03-05T02:39:35.740Z, 38.41
2023-03-05T02:40:35.745Z, 38.35
2023-03-05T02:41:35.749Z, 38.34
2023-03-05T02:42:35.761Z, 38.34
2023-03-05T02:43:35.784Z, 38.34
2023-03-05T02:44:35.759Z, 38.39
2023-03-05T02:45:35.866Z, 38.35
2023-03-05T02:46:35.829Z, 38.31
2023-03-05T02:47:35.897Z, 38.33
2023-03-05T02:48:35.880Z, 38.26
2023-03-05T02:49:35.888Z, 38.20
2023-03-05T02:50:35.939Z, 38.16
2023-03-05T02:51:35.937Z, 38.18
2023-03-05T02:52:35.902Z, 38.18
2023-03-05T02:53:35.937Z, 38.10
2023-03-05T02:54:35.946Z, 38.12
2023-03-05T02:55:35.954Z, 38.05
2023-03-05T02:56:35.929Z, 38.07
2023-03-05T02:57:35.990Z, 38.05
2023-03-05T02:58:35.955Z, 38.01
2023-03-05T02:59:35.993Z, 38.03
2023-03-05T03:00:35.985Z, 37.94
2023-03-05T03:01:36.069Z, 37.98
2023-03-05T03:02:36.022Z, 37.96
2023-03-05T03:03:36.147Z, 37.98
2023-03-05T03:04:36.042Z, 37.97
2023-03-05T03:05:36.053Z, 37.94
2023-03-05T03:06:36.043Z, 37.88
2023-03-05T03:07:36.042Z, 37.85
2023-03-05T03:08:36.089Z, 37.87
2023-03-05T03:09:36.043Z, 37.80
2023-03-05T03:10:36.067Z, 37.80
2023-03-05T03:11:36.041Z, 37.80
2023-03-05T03:12:36.046Z, 37.80
2023-03-05T03:13:36.075Z, 37.82
2023-03-05T03:14:36.079Z, 37.80
2023-03-05T03:15:36.072Z, 37.74
2023-03-05T03:16:36.197Z, 37.69
2023-03-05T03:17:36.099Z, 37.71
2023-03-05T03:18:36.129Z, 37.68
2023-03-05T03:19:36.165Z, 37.64
2023-03-05T03:20:36.160Z, 37.59
2023-03-05T03:21:36.173Z, 37.64
2023-03-05T03:22:36.196Z, 37.66
2023-03-05T03:23:36.208Z, 37.67
2023-03-05T03:24:36.247Z, 37.65
2023-03-05T03:25:36.285Z, 37.65
2023-03-05T03:26:36.251Z, 37.64
2023-03-05T03:27:36.270Z, 37.59
2023-03-05T03:28:36.252Z, 37.50
2023-03-05T03:29:36.339Z, 37.49
2023-03-05T03:30:36.380Z, 37.49
2023-03-05T03:31:36.281Z, 37.46
2023-03-05T03:32:36.393Z, 37.46
2023-03-05T03:33:36.337Z, 37.43
2023-03-05T03:34:36.325Z, 37.41
2023-03-05T03:35:36.358Z, 37.39
2023-03-05T03:36:36.352Z, 37.40
2023-03-05T03:37:36.368Z, 37.37
2023-03-05T03:38:36.362Z, 37.35
2023-03-05T03:39:36.377Z, 37.38
2023-03-05T03:40:36.368Z, 37.37
2023-03-05T03:41:36.366Z, 37.36
2023-03-05T03:42:36.393Z, 37.32
2023-03-05T03:43:36.421Z, 37.28
2023-03-05T03:44:36.452Z, 37.27
2023-03-05T03:45:36.406Z, 37.23
2023-03-05T03:46:36.561Z, 37.26
2023-03-05T03:47:36.496Z, 37.22
2023-03-05T03:48:36.484Z, 37.17
2023-03-05T03:49:36.466Z, 37.17
2023-03-05T03:50:36.454Z, 37.15
2023-03-05T03:51:36.466Z, 37.17
2023-03-05T03:52:36.535Z, 37.18
2023-03-05T03:53:36.509Z, 37.16
2023-03-05T03:54:36.504Z, 37.11
2023-03-05T03:55:36.509Z, 37.11
2023-03-05T03:56:36.513Z, 37.03
2023-03-05T03:57:36.591Z, 37.03
2023-03-05T03:58:36.543Z, 37.00
2023-03-05T03:59:36.632Z, 36.98
2023-03-05T04:00:36.686Z, 36.98
2023-03-05T04:01:36.639Z, 36.96
2023-03-05T04:02:36.646Z, 36.88
2023-03-05T04:03:36.598Z, 36.95
2023-03-05T04:04:36.684Z, 36.91
2023-03-05T04:05:36.623Z, 36.90
2023-03-05T04:06:36.624Z, 36.86
2023-03-05T04:07:36.633Z, 36.81
2023-03-05T04:08:36.645Z, 36.80
2023-03-05T04:09:36.660Z, 36.76
2023-03-05T04:10:36.669Z, 36.73
2023-03-05T04:11:36.676Z, 36.73
2023-03-05T04:12:36.753Z, 36.66
2023-03-05T04:13:36.743Z, 36.73
2023-03-05T04:14:36.726Z, 36.75
2023-03-05T04:15:36.785Z, 36.71
2023-03-05T04:16:36.765Z, 36.73
2023-03-05T04:17:36.767Z, 36.70
2023-03-05T04:18:36.778Z, 36.69
2023-03-05T04:19:36.795Z, 36.65
2023-03-05T04:20:36.793Z, 36.66
2023-03-05T04:21:36.836Z, 36.70
2023-03-05T04:22:36.825Z, 36.64
2023-03-05T04:23:36.813Z, 36.59
2023-03-05T04:24:36.812Z, 36.64
2023-03-05T04:25:36.865Z, 36.58
2023-03-05T04:26:36.843Z, 36.59
2023-03-05T04:27:36.909Z, 36.56
2023-03-05T04:28:36.877Z, 36.59
2023-03-05T04:29:36.890Z, 36.53
2023-03-05T04:30:36.892Z, 36.49
2023-03-05T04:31:36.901Z, 37.17
2023-03-05T04:32:36.977Z, 38.42
2023-03-05T04:33:36.901Z, 38.69
2023-03-05T04:34:36.916Z, 38.62
2023-03-05T04:35:36.944Z, 38.46
2023-03-05T04:36:36.962Z, 37.71
2023-03-05T04:37:36.998Z, 36.90
2023-03-05T04:38:37.012Z, 36.18
2023-03-05T04:39:37.000Z, 35.56
2023-03-05T04:40:36.988Z, 34.98
2023-03-05T04:41:37.009Z, 34.62
2023-03-05T04:42:36.981Z, 34.24
2023-03-05T04:43:36.987Z, 33.80
2023-03-05T04:44:36.979Z, 33.39
2023-03-05T04:45:36.994Z, 33.76
2023-03-05T04:46:37.034Z, 38.28
2023-03-05T04:47:37.015Z, 42.76
2023-03-05T04:48:37.029Z, 43.99
2023-03-05T04:49:37.047Z, 43.19
2023-03-05T04:50:37.104Z, 41.83
2023-03-05T04:51:37.076Z, 40.44
2023-03-05T04:52:37.065Z, 39.16
2023-03-05T04:53:37.086Z, 38.08
2023-03-05T04:54:37.142Z, 37.09
2023-03-05T04:55:37.117Z, 36.12
2023-03-05T04:56:37.193Z, 35.13
2023-03-05T04:57:37.192Z, 34.20
2023-03-05T04:58:37.184Z, 33.45
2023-03-05T04:59:37.202Z, 32.80
2023-03-05T05:00:37.201Z, 32.29
2023-03-05T05:01:37.233Z, 32.40
2023-03-05T05:02:37.222Z, 35.50
2023-03-05T05:03:37.193Z, 40.34
2023-03-05T05:04:37.188Z, 44.16
2023-03-05T05:05:37.188Z, 48.26
2023-03-05T05:06:37.220Z, 52.15
2023-03-05T05:07:37.218Z, 56.43
2023-03-05T05:08:37.249Z, 60.44
2023-03-05T05:09:37.309Z, 67.39
2023-03-05T05:10:37.295Z, 52.06
2023-03-05T05:11:37.314Z, 52.46
2023-03-05T05:12:37.342Z, 53.43
2023-03-05T05:13:37.321Z, 55.09
2023-03-05T05:14:37.396Z, 57.80
2023-03-05T05:15:37.382Z, 60.99
2023-03-05T05:16:37.396Z, 66.47
2023-03-05T05:17:37.365Z, 53.12
2023-03-05T05:18:37.343Z, 53.61
2023-03-05T05:19:37.406Z, 55.05
2023-03-05T05:20:37.327Z, 56.53
2023-03-05T05:21:37.342Z, 59.57
2023-03-05T05:22:37.361Z, 64.73
2023-03-05T05:23:37.352Z, 54.20
2023-03-05T05:24:37.357Z, 53.11
2023-03-05T05:25:37.370Z, 55.61
2023-03-05T05:26:37.384Z, 53.17
2023-03-05T05:27:37.398Z, 47.85
2023-03-05T05:28:37.398Z, 44.74
2023-03-05T05:29:37.468Z, 43.09
2023-03-05T05:30:37.434Z, 42.10
2023-03-05T05:31:37.566Z, 41.57
2023-03-05T05:32:37.483Z, 41.25
2023-03-05T05:33:37.471Z, 40.93
2023-03-05T05:34:37.487Z, 40.71
2023-03-05T05:35:37.481Z, 40.54
2023-03-05T05:36:37.483Z, 40.44
2023-03-05T05:37:37.526Z, 40.30
2023-03-05T05:38:37.542Z, 40.16
2023-03-05T05:39:37.517Z, 40.00
2023-03-05T05:40:37.504Z, 39.81
2023-03-05T05:41:37.516Z, 39.62
2023-03-05T05:42:37.536Z, 39.40
2023-03-05T05:43:37.529Z, 39.20
2023-03-05T05:44:37.571Z, 38.97
2023-03-05T05:45:37.699Z, 38.77
2023-03-05T05:46:37.665Z, 38.56
2023-03-05T05:47:37.670Z, 38.35
2023-03-05T05:48:37.631Z, 38.20
2023-03-05T05:49:37.652Z, 38.01
2023-03-05T05:50:37.699Z, 37.86
2023-03-05T05:51:37.664Z, 38.79
2023-03-05T05:52:37.692Z, 45.39
2023-03-05T05:53:37.657Z, 51.03
2023-03-05T05:54:37.688Z, 50.92
2023-03-05T05:55:37.668Z, 49.46
2023-03-05T05:56:37.666Z, 48.86
2023-03-05T05:57:37.668Z, 48.36
2023-03-05T05:58:37.696Z, 47.64
2023-03-05T05:59:37.691Z, 46.96
2023-03-05T06:00:37.705Z, 46.36
2023-03-05T06:01:37.867Z, 45.11
2023-03-05T06:02:37.820Z, 43.32
2023-03-05T06:03:37.743Z, 41.54
2023-03-05T06:04:37.764Z, 39.60
2023-03-05T06:05:37.748Z, 37.11
2023-03-05T06:06:37.754Z, 38.23
2023-03-05T06:07:37.761Z, 42.55
2023-03-05T06:08:37.820Z, 46.32
2023-03-05T06:09:37.833Z, 49.01
2023-03-05T06:10:37.809Z, 51.03
2023-03-05T06:11:37.820Z, 50.91
2023-03-05T06:12:37.814Z, 48.78
2023-03-05T06:13:37.849Z, 46.63
2023-03-05T06:14:37.835Z, 44.74
2023-03-05T06:15:37.846Z, 43.14
2023-03-05T06:16:37.866Z, 43.49
2023-03-05T06:17:37.844Z, 43.61
2023-03-05T06:18:37.919Z, 43.62
2023-03-05T06:19:37.895Z, 43.52
2023-03-05T06:20:37.895Z, 43.37
2023-03-05T06:21:37.903Z, 43.22
2023-03-05T06:22:37.913Z, 43.08
2023-03-05T06:23:37.911Z, 42.97
2023-03-05T06:24:37.934Z, 42.78
2023-03-05T06:25:38.015Z, 42.62
2023-03-05T06:26:38.030Z, 42.50
2023-03-05T06:27:38.070Z, 42.35
2023-03-05T06:28:38.014Z, 42.22
2023-03-05T06:29:38.008Z, 42.06
2023-03-05T06:30:38.081Z, 41.91
2023-03-05T06:31:37.990Z, 41.77
2023-03-05T06:32:38.052Z, 41.61
2023-03-05T06:33:38.010Z, 41.47
2023-03-05T06:34:38.071Z, 41.33
2023-03-05T06:35:38.058Z, 41.20
2023-03-05T06:36:38.049Z, 41.06
2023-03-05T06:37:38.065Z, 40.94
2023-03-05T06:38:38.091Z, 40.79
2023-03-05T06:39:38.094Z, 40.65
2023-03-05T06:40:38.123Z, 40.51
2023-03-05T06:41:38.119Z, 40.39
2023-03-05T06:42:38.142Z, 40.25
2023-03-05T06:43:38.181Z, 40.11
2023-03-05T06:44:38.156Z, 39.99
2023-03-05T06:45:38.261Z, 39.86
2023-03-05T06:46:38.220Z, 39.74
2023-03-05T06:47:38.226Z, 39.62
2023-03-05T06:48:38.199Z, 39.51
2023-03-05T06:49:38.238Z, 39.39
2023-03-05T06:50:38.236Z, 39.26
2023-03-05T06:51:38.188Z, 39.15
2023-03-05T06:52:38.261Z, 39.06
2023-03-05T06:53:38.241Z, 38.97
2023-03-05T06:54:38.287Z, 38.80
2023-03-05T06:55:38.272Z, 38.70
2023-03-05T06:56:38.269Z, 38.62
2023-03-05T06:57:38.336Z, 38.54
2023-03-05T06:58:38.315Z, 38.43
2023-03-05T06:59:38.357Z, 38.34
2023-03-05T07:00:38.405Z, 38.22
2023-03-05T07:01:38.461Z, 38.14
2023-03-05T07:02:38.481Z, 38.05
2023-03-05T07:03:38.356Z, 37.95
2023-03-05T07:04:38.393Z, 37.87
2023-03-05T07:05:38.427Z, 37.77
2023-03-05T07:06:38.464Z, 37.69
2023-03-05T07:07:38.385Z, 37.58
2023-03-05T07:08:38.385Z, 37.52
2023-03-05T07:09:38.433Z, 37.45
2023-03-05T07:10:38.469Z, 37.33
2023-03-05T07:11:38.453Z, 37.26
2023-03-05T07:12:38.455Z, 37.19
2023-03-05T07:13:38.453Z, 37.15
2023-03-05T07:14:38.449Z, 37.05
2023-03-05T07:15:38.515Z, 36.96
2023-03-05T07:16:38.452Z, 36.93
2023-03-05T07:17:38.465Z, 36.91
2023-03-05T07:18:38.469Z, 36.85
2023-03-05T07:19:38.480Z, 36.78
2023-03-05T07:20:38.545Z, 36.76
2023-03-05T07:21:40.084Z, 36.67
2023-03-05T07:22:38.549Z, 36.59
2023-03-05T07:23:38.550Z, 36.57
2023-03-05T07:24:38.537Z, 36.50
2023-03-05T07:25:38.619Z, 36.46
2023-03-05T07:26:38.610Z, 36.42
2023-03-05T07:27:38.610Z, 36.35
2023-03-05T07:28:38.592Z, 36.31
2023-03-05T07:29:38.595Z, 36.22
2023-03-05T07:30:38.664Z, 36.20
2023-03-05T07:31:38.598Z, 36.13
2023-03-05T07:32:38.669Z, 36.07
2023-03-05T07:33:38.617Z, 36.00
2023-03-05T07:34:38.617Z, 35.97
2023-03-05T07:35:38.781Z, 35.89
2023-03-05T07:36:38.744Z, 35.79
2023-03-05T07:37:38.734Z, 35.71
2023-03-05T07:38:38.777Z, 35.64
2023-03-05T07:39:38.772Z, 35.56
2023-03-05T07:40:38.766Z, 35.50
2023-03-05T07:41:38.732Z, 35.49
2023-03-05T07:42:38.865Z, 35.46
2023-03-05T07:43:38.766Z, 35.45
2023-03-05T07:44:38.763Z, 35.39
2023-03-05T07:45:38.764Z, 35.33
2023-03-05T07:46:38.777Z, 35.30
2023-03-05T07:47:38.774Z, 35.22
2023-03-05T07:48:38.789Z, 35.14
2023-03-05T07:49:38.861Z, 35.11
2023-03-05T07:50:38.838Z, 35.07
2023-03-05T07:51:38.838Z, 35.06
2023-03-05T07:52:38.843Z, 34.96
2023-03-05T07:53:38.901Z, 34.90
2023-03-05T07:54:38.863Z, 34.85
2023-03-05T07:55:38.904Z, 34.82
2023-03-05T07:56:39.104Z, 34.84
2023-03-05T07:57:38.906Z, 34.81
2023-03-05T07:58:38.894Z, 34.70
2023-03-05T07:59:39.049Z, 34.92
2023-03-05T08:00:38.957Z, 38.96
2023-03-05T08:01:38.934Z, 43.07
2023-03-05T08:02:39.015Z, 47.43
2023-03-05T08:03:38.938Z, 51.67
2023-03-05T08:04:38.942Z, 56.22
2023-03-05T08:05:39.024Z, 60.52
2023-03-05T08:06:39.012Z, 66.71
2023-03-05T08:07:39.007Z, 51.58
2023-03-05T08:08:39.031Z, 52.37
2023-03-05T08:09:39.087Z, 53.42
2023-03-05T08:10:39.039Z, 55.20
2023-03-05T08:11:39.061Z, 57.78
2023-03-05T08:12:39.108Z, 60.43
2023-03-05T08:13:39.145Z, 67.57
2023-03-05T08:14:39.141Z, 54.63
2023-03-05T08:15:39.149Z, 52.83
2023-03-05T08:16:39.093Z, 53.98
2023-03-05T08:17:39.093Z, 55.88
2023-03-05T08:18:39.137Z, 57.56
2023-03-05T08:19:39.168Z, 58.58
2023-03-05T08:20:39.125Z, 59.33
2023-03-05T08:21:39.124Z, 59.73
2023-03-05T08:22:39.130Z, 59.98
2023-03-05T08:23:39.184Z, 60.10
2023-03-05T08:24:39.154Z, 60.19
2023-03-05T08:25:39.211Z, 60.17
2023-03-05T08:26:39.194Z, 60.05
2023-03-05T08:27:39.203Z, 60.03
2023-03-05T08:28:39.200Z, 59.94
2023-03-05T08:29:39.263Z, 59.82
2023-03-05T08:30:39.236Z, 59.77
2023-03-05T08:31:39.279Z, 59.59
2023-03-05T08:32:39.277Z, 59.43
2023-03-05T08:33:39.249Z, 59.25
2023-03-05T08:34:39.265Z, 59.11
2023-03-05T08:35:39.272Z, 59.00
2023-03-05T08:36:39.338Z, 58.83
2023-03-05T08:37:39.314Z, 58.67
2023-03-05T08:38:39.318Z, 58.48
2023-03-05T08:39:39.339Z, 58.33
2023-03-05T08:40:39.312Z, 58.11
2023-03-05T08:41:39.312Z, 58.00
2023-03-05T08:42:39.366Z, 57.79
2023-03-05T08:43:39.372Z, 57.62
2023-03-05T08:44:39.454Z, 57.47
2023-03-05T08:45:39.451Z, 57.27
2023-03-05T08:46:39.531Z, 57.02
2023-03-05T08:47:39.459Z, 56.78
2023-03-05T08:48:39.440Z, 56.65
2023-03-05T08:49:39.459Z, 56.46
2023-03-05T08:50:39.469Z, 56.35
2023-03-05T08:51:39.455Z, 56.22
2023-03-05T08:52:39.461Z, 56.01
2023-03-05T08:53:39.459Z, 55.93
2023-03-05T08:54:39.457Z, 55.76
2023-03-05T08:55:39.475Z, 55.60
2023-03-05T08:56:39.530Z, 55.45
2023-03-05T08:57:39.521Z, 55.31
2023-03-05T08:58:39.520Z, 55.14
2023-03-05T08:59:39.519Z, 54.99
2023-03-05T09:00:39.522Z, 54.88
2023-03-05T09:01:39.620Z, 54.78
2023-03-05T09:02:39.697Z, 54.71
2023-03-05T09:03:39.571Z, 54.52
2023-03-05T09:04:39.566Z, 54.45
2023-03-05T09:05:39.590Z, 54.34
2023-03-05T09:06:39.592Z, 54.18
2023-03-05T09:07:39.593Z, 54.05
2023-03-05T09:08:39.588Z, 53.99
2023-03-05T09:09:39.629Z, 53.86
2023-03-05T09:10:39.668Z, 53.75
2023-03-05T09:11:39.636Z, 53.60
2023-03-05T09:12:39.643Z, 53.54
2023-03-05T09:13:39.639Z, 53.42
2023-03-05T09:14:39.636Z, 53.30
2023-03-05T09:15:39.657Z, 53.12
2023-03-05T09:16:39.716Z, 52.96
2023-03-05T09:17:39.690Z, 52.93
2023-03-05T09:18:39.722Z, 52.72
2023-03-05T09:19:39.715Z, 52.61
2023-03-05T09:20:39.725Z, 52.50
2023-03-05T09:21:39.803Z, 52.37
2023-03-05T09:22:39.841Z, 52.32
2023-03-05T09:23:39.791Z, 52.22
2023-03-05T09:24:39.765Z, 52.17
2023-03-05T09:25:39.839Z, 52.02
2023-03-05T09:26:39.812Z, 51.99
2023-03-05T09:27:39.879Z, 51.92
2023-03-05T09:28:39.818Z, 51.79
2023-03-05T09:29:41.953Z, 51.69
2023-03-05T09:30:39.876Z, 51.56
2023-03-05T09:31:39.963Z, 51.45
2023-03-05T09:32:39.918Z, 51.39
2023-03-05T09:33:39.915Z, 51.34
2023-03-05T09:34:39.930Z, 51.27
2023-03-05T09:35:40.006Z, 51.18
2023-03-05T09:36:39.905Z, 51.08
2023-03-05T09:37:39.939Z, 50.96
2023-03-05T09:38:39.912Z, 50.86
2023-03-05T09:39:39.943Z, 50.89
2023-03-05T09:40:39.998Z, 50.74
2023-03-05T09:41:39.958Z, 50.64
2023-03-05T09:42:39.974Z, 50.51
2023-03-05T09:43:39.988Z, 50.47
2023-03-05T09:44:40.010Z, 50.44
2023-03-05T09:45:40.061Z, 50.33
2023-03-05T09:46:39.986Z, 50.27
2023-03-05T09:47:40.030Z, 50.16
2023-03-05T09:48:40.023Z, 50.07
2023-03-05T09:49:40.025Z, 50.03
2023-03-05T09:50:40.026Z, 49.94
2023-03-05T09:51:40.026Z, 49.87
2023-03-05T09:52:40.058Z, 49.84
2023-03-05T09:53:40.065Z, 49.75
2023-03-05T09:54:40.089Z, 49.64
2023-03-05T09:55:40.167Z, 49.60
2023-03-05T09:56:40.142Z, 49.45
2023-03-05T09:57:40.188Z, 49.37
2023-03-05T09:58:40.141Z, 49.39
2023-03-05T09:59:40.126Z, 49.37
2023-03-05T10:00:40.128Z, 49.36
2023-03-05T10:01:40.134Z, 49.22
2023-03-05T10:02:40.177Z, 49.06
2023-03-05T10:03:40.250Z, 49.10
2023-03-05T10:04:40.183Z, 48.99
2023-03-05T10:05:40.174Z, 48.94
2023-03-05T10:06:40.260Z, 48.89
2023-03-05T10:07:40.215Z, 48.88
2023-03-05T10:08:40.273Z, 48.71
2023-03-05T10:09:40.231Z, 48.65
2023-03-05T10:10:40.228Z, 48.60
2023-03-05T10:11:40.309Z, 48.57
2023-03-05T10:12:40.322Z, 48.50
2023-03-05T10:13:40.320Z, 48.41
2023-03-05T10:14:40.299Z, 48.39
2023-03-05T10:15:40.327Z, 48.29
2023-03-05T10:16:40.366Z, 48.14
2023-03-05T10:17:40.316Z, 48.13
2023-03-05T10:18:40.337Z, 48.03
2023-03-05T10:19:40.324Z, 47.98
2023-03-05T10:20:40.353Z, 47.94
2023-03-05T10:21:40.482Z, 47.90
2023-03-05T10:22:40.381Z, 47.79
2023-03-05T10:23:40.368Z, 47.79
2023-03-05T10:24:40.415Z, 47.69
2023-03-05T10:25:40.413Z, 47.58
2023-03-05T10:26:40.401Z, 47.53
2023-03-05T10:27:40.394Z, 47.49
2023-03-05T10:28:40.393Z, 47.52
2023-03-05T10:29:40.399Z, 47.42
2023-03-05T10:30:40.429Z, 47.44
2023-03-05T10:31:40.445Z, 47.38
2023-03-05T10:32:40.463Z, 47.30
2023-03-05T10:33:40.522Z, 47.31
2023-03-05T10:34:40.499Z, 47.21
2023-03-05T10:35:40.611Z, 47.17
2023-03-05T10:36:40.517Z, 47.12
2023-03-05T10:37:40.501Z, 47.12
2023-03-05T10:38:40.542Z, 47.04
2023-03-05T10:39:40.527Z, 46.92
2023-03-05T10:40:40.509Z, 46.85
2023-03-05T10:41:40.525Z, 46.76
2023-03-05T10:42:40.511Z, 46.80
2023-03-05T10:43:40.524Z, 46.76
2023-03-05T10:44:40.536Z, 46.68
2023-03-05T10:45:40.671Z, 46.64
2023-03-05T10:46:40.617Z, 46.61
2023-03-05T10:47:40.622Z, 46.57
2023-03-05T10:48:40.610Z, 46.56
2023-03-05T10:49:40.650Z, 46.49
2023-03-05T10:50:40.650Z, 46.42
2023-03-05T10:51:40.661Z, 46.35
2023-03-05T10:52:40.643Z, 46.30
2023-03-05T10:53:40.672Z, 46.26
2023-03-05T10:54:40.660Z, 46.23
2023-03-05T10:55:40.722Z, 46.15
2023-03-05T10:56:40.680Z, 46.11
2023-03-05T10:57:40.694Z, 46.08
2023-03-05T10:58:40.734Z, 46.03
2023-03-05T10:59:40.690Z, 45.98
2023-03-05T11:00:40.683Z, 45.93
2023-03-05T11:01:40.778Z, 47.41
2023-03-05T11:02:40.725Z, 48.30
2023-03-05T11:03:40.761Z, 48.23
2023-03-05T11:04:40.729Z, 47.02
2023-03-05T11:05:40.794Z, 44.66
2023-03-05T11:06:40.798Z, 41.83
2023-03-05T11:07:40.765Z, 38.70
2023-03-05T11:08:40.762Z, 35.63
2023-03-05T11:09:40.815Z, 34.97
2023-03-05T11:10:40.817Z, 38.83
2023-03-05T11:11:40.824Z, 42.52
2023-03-05T11:12:40.857Z, 45.26
2023-03-05T11:13:40.820Z, 46.77
2023-03-05T11:14:40.831Z, 47.61
2023-03-05T11:15:40.926Z, 45.78
2023-03-05T11:16:40.854Z, 42.74
2023-03-05T11:17:40.857Z, 39.79
2023-03-05T11:18:40.850Z, 37.03
2023-03-05T11:19:40.860Z, 33.56
2023-03-05T11:20:40.885Z, 31.09
2023-03-05T11:21:40.864Z, 31.63
2023-03-05T11:22:40.948Z, 36.92
2023-03-05T11:23:40.924Z, 41.45
2023-03-05T11:24:41.042Z, 44.70
2023-03-05T11:25:40.925Z, 47.08
2023-03-05T11:26:40.937Z, 49.22
2023-03-05T11:27:40.975Z, 48.95
2023-03-05T11:28:40.977Z, 46.93
2023-03-05T11:29:40.995Z, 44.94
2023-03-05T11:30:41.013Z, 43.67
2023-03-05T11:31:41.022Z, 44.27
2023-03-05T11:32:41.059Z, 44.21
2023-03-05T11:33:41.026Z, 44.35
2023-03-05T11:34:41.043Z, 44.21
2023-03-05T11:35:41.105Z, 44.05
2023-03-05T11:36:41.018Z, 43.89
2023-03-05T11:37:41.109Z, 43.76
2023-03-05T11:38:41.060Z, 43.64
2023-03-05T11:39:41.070Z, 43.47
2023-03-05T11:40:41.051Z, 43.29
2023-03-05T11:41:41.062Z, 43.13
2023-03-05T11:42:41.141Z, 42.97
2023-03-05T11:43:41.091Z, 42.82
2023-03-05T11:44:41.136Z, 42.66
2023-03-05T11:45:41.104Z, 42.49
2023-03-05T11:46:41.144Z, 42.34
2023-03-05T11:47:41.183Z, 42.20
2023-03-05T11:48:41.193Z, 42.08
2023-03-05T11:49:41.224Z, 41.93
2023-03-05T11:50:41.238Z, 41.80
2023-03-05T11:51:41.213Z, 41.67
2023-03-05T11:52:41.223Z, 41.51
2023-03-05T11:53:41.206Z, 41.35
2023-03-05T11:54:41.270Z, 41.23
2023-03-05T11:55:41.238Z, 41.12
2023-03-05T11:56:41.249Z, 40.97
2023-03-05T11:57:41.255Z, 40.85
2023-03-05T11:58:41.255Z, 40.71
2023-03-05T11:59:41.256Z, 40.58
2023-03-05T12:00:41.266Z, 40.45
2023-03-05T12:01:41.277Z, 40.30
2023-03-05T12:02:41.337Z, 40.20
2023-03-05T12:03:46.470Z, 40.10
2023-03-05T12:04:41.359Z, 39.96
2023-03-05T12:05:41.373Z, 39.83
2023-03-05T12:06:41.400Z, 39.72
2023-03-05T12:07:41.463Z, 39.59
2023-03-05T12:08:41.409Z, 39.50
2023-03-05T12:09:42.172Z, 39.40
2023-03-05T12:10:41.874Z, 39.27
2023-03-05T12:11:41.469Z, 39.18
2023-03-05T12:12:41.506Z, 39.08
2023-03-05T12:13:43.061Z, 38.99
2023-03-05T12:14:41.489Z, 38.92
2023-03-05T12:15:41.816Z, 38.80
2023-03-05T12:16:41.543Z, 38.71
2023-03-05T12:17:42.225Z, 38.58
2023-03-05T12:18:41.535Z, 38.49
2023-03-05T12:19:41.486Z, 38.41
2023-03-05T12:20:41.971Z, 38.30
2023-03-05T12:21:41.490Z, 38.24
2023-03-05T12:22:41.968Z, 38.20
2023-03-05T12:23:42.061Z, 38.12
2023-03-05T12:24:41.600Z, 38.01
2023-03-05T12:25:41.718Z, 37.93
2023-03-05T12:26:41.976Z, 37.84
2023-03-05T12:27:41.625Z, 37.75
2023-03-05T12:28:41.820Z, 37.69